createdAt,value
2022-08-31T00:01:03.091Z,101697.41
2022-08-31T00:03:47.934Z,101699.22
2022-08-31T00:06:15.993Z,101700.09
2022-08-31T00:08:43.426Z,101692.19
2022-08-31T00:11:13.986Z,101692.19
2022-08-31T00:13:41.590Z,101682.28
2022-08-31T00:16:10.398Z,101684.13
2022-08-31T00:18:37.927Z,101687.09
2022-08-31T00:21:05.638Z,101687.09
2022-08-31T00:23:33.070Z,101687.94
2022-08-31T00:26:00.509Z,101686.94
2022-08-31T00:28:27.947Z,101687.09
2022-08-31T00:30:55.382Z,101683.56
2022-08-31T00:33:24.113Z,101682.56
2022-08-31T00:35:51.542Z,101685.09
2022-08-31T00:38:18.970Z,101686.81
2022-08-31T00:40:47.066Z,101690.47
2022-08-31T00:43:30.021Z,101686.09
2022-08-31T00:45:57.735Z,101673.53
2022-08-31T00:48:26.642Z,101675.34
2022-08-31T00:50:54.116Z,101679.03
2022-08-31T00:53:21.579Z,101688.94
2022-08-31T00:55:49.009Z,101686.25
2022-08-31T00:58:16.514Z,101696.13
2022-08-31T01:00:45.030Z,101687.38
2022-08-31T01:03:12.699Z,101690.06
2022-08-31T01:05:41.469Z,101704.03
2022-08-31T01:08:08.914Z,101697.97
2022-08-31T01:10:37.817Z,101699.81
2022-08-31T01:13:05.482Z,101699.81
2022-08-31T01:15:33.585Z,101706.88
2022-08-31T01:18:02.295Z,101701.63
2022-08-31T01:20:35.714Z,101701.63
2022-08-31T01:23:08.826Z,101705.19
2022-08-31T01:25:36.503Z,101696.41
2022-08-31T01:28:06.439Z,101694.75
2022-08-31T01:30:34.189Z,101698.41
2022-08-31T01:33:01.733Z,101702.66
2022-08-31T01:35:29.189Z,101703.78
2022-08-31T01:37:57.272Z,101702.09
2022-08-31T01:40:27.569Z,101706.59
2022-08-31T01:42:55.072Z,101707.47
2022-08-31T01:45:22.618Z,101709.28
2022-08-31T01:47:50.064Z,101711.84
2022-08-31T01:50:18.746Z,101704.06
2022-08-31T01:52:46.241Z,101704.06
2022-08-31T01:55:14.565Z,101714.81
2022-08-31T01:57:43.308Z,101711.28
2022-08-31T02:00:31.441Z,101704.34
2022-08-31T02:02:59.732Z,101705.19
2022-08-31T02:05:28.151Z,101704.34
2022-08-31T02:07:55.594Z,101709.88
2022-08-31T02:10:23.336Z,101700.94
2022-08-31T02:12:52.482Z,101707.19
2022-08-31T02:15:29.955Z,101707.31
2022-08-31T02:17:57.449Z,101700.25
2022-08-31T02:20:25.015Z,101696.03
2022-08-31T02:22:52.505Z,101697.72
2022-08-31T02:25:20.168Z,101695.16
2022-08-31T02:27:47.762Z,101702.09
2022-08-31T02:30:18.464Z,101703.94
2022-08-31T02:32:45.990Z,101704.63
2022-08-31T02:35:13.749Z,101701.94
2022-08-31T02:37:41.223Z,101693.91
2022-08-31T02:40:12.170Z,101700.94
2022-08-31T02:42:52.802Z,101689.38
2022-08-31T02:45:24.174Z,101688.41
2022-08-31T02:47:52.155Z,101683.16
2022-08-31T02:50:26.023Z,101686.84
2022-08-31T02:52:55.293Z,101684.16
2022-08-31T02:55:22.786Z,101680.78
2022-08-31T02:57:50.915Z,101687.84
2022-08-31T03:00:19.338Z,101687.84
2022-08-31T03:02:48.330Z,101693.22
2022-08-31T03:05:15.879Z,101680.91
2022-08-31T03:07:43.529Z,101685.44
2022-08-31T03:10:13.999Z,101687.13
2022-08-31T03:12:46.504Z,101692.50
2022-08-31T03:15:14.272Z,101688.00
2022-08-31T03:17:41.856Z,101685.44
2022-08-31T03:20:12.072Z,101684.44
2022-08-31T03:22:39.711Z,101686.44
2022-08-31T03:25:08.662Z,101683.47
2022-08-31T03:27:37.147Z,101685.16
2022-08-31T03:30:07.445Z,101690.53
2022-08-31T03:32:36.152Z,101685.31
2022-08-31T03:35:03.693Z,101683.75
2022-08-31T03:37:32.779Z,101685.44
2022-08-31T03:40:01.664Z,101688.28
2022-08-31T03:42:32.128Z,101690.97
2022-08-31T03:44:59.959Z,101695.34
2022-08-31T03:47:30.972Z,101692.81
2022-08-31T03:49:58.562Z,101698.16
2022-08-31T03:52:30.967Z,101698.16
2022-08-31T03:55:06.854Z,101704.53
2022-08-31T03:57:35.742Z,101698.47
2022-08-31T04:00:03.654Z,101700.13
2022-08-31T04:02:43.170Z,101709.19
2022-08-31T04:05:44.063Z,101710.88
2022-08-31T04:08:14.421Z,101710.03
2022-08-31T04:11:06.058Z,101709.19
2022-08-31T04:13:56.411Z,101711.88
2022-08-31T04:16:44.234Z,101716.22
2022-08-31T04:19:31.517Z,101712.84
2022-08-31T04:22:08.389Z,101716.53
2022-08-31T04:24:40.394Z,101717.53
2022-08-31T04:27:11.228Z,101722.59
2022-08-31T04:29:39.475Z,101729.09
2022-08-31T04:32:06.935Z,101730.50
2022-08-31T04:34:34.462Z,101735.00
2022-08-31T04:37:01.945Z,101733.06
2022-08-31T04:39:32.840Z,101732.34
2022-08-31T04:42:00.472Z,101729.66
2022-08-31T04:44:31.366Z,101731.34
2022-08-31T04:46:59.865Z,101730.66
2022-08-31T04:49:27.322Z,101731.78
2022-08-31T04:51:54.801Z,101731.78
2022-08-31T04:54:22.377Z,101735.47
2022-08-31T04:56:49.847Z,101737.88
2022-08-31T04:59:27.663Z,101728.66
2022-08-31T05:02:09.944Z,101734.03
2022-08-31T05:04:41.343Z,101731.34
2022-08-31T05:07:08.824Z,101727.28
2022-08-31T05:09:37.687Z,101726.13
2022-08-31T05:12:05.161Z,101730.09
2022-08-31T05:14:32.731Z,101732.94
2022-08-31T05:17:06.287Z,101724.19
2022-08-31T05:19:42.528Z,101739.41
2022-08-31T05:22:10.105Z,101743.38
2022-08-31T05:24:39.664Z,101747.78
2022-08-31T05:27:07.396Z,101739.16
2022-08-31T05:29:36.786Z,101746.22
2022-08-31T05:32:28.507Z,101748.06
2022-08-31T05:35:04.142Z,101740.00
2022-08-31T05:37:39.145Z,101744.38
2022-08-31T05:40:09.808Z,101745.38
2022-08-31T05:42:41.109Z,101740.84
2022-08-31T05:45:09.758Z,101734.66
2022-08-31T05:47:38.617Z,101749.59
2022-08-31T05:50:11.793Z,101746.22
2022-08-31T05:52:43.641Z,101751.44
2022-08-31T05:55:11.956Z,101752.41
2022-08-31T05:57:40.351Z,101750.59
2022-08-31T06:00:09.122Z,101757.78
2022-08-31T06:02:42.356Z,101757.78
2022-08-31T06:05:13.923Z,101760.63
2022-08-31T06:07:43.292Z,101759.63
2022-08-31T06:12:53.316Z,101759.47
2022-08-31T06:15:20.946Z,101762.03
2022-08-31T06:17:48.399Z,101762.88
2022-08-31T06:20:18.283Z,101763.41
2022-08-31T06:22:47.883Z,101763.28
2022-08-31T06:25:24.436Z,101763.13
2022-08-31T06:27:53.006Z,101758.31
2022-08-31T06:30:23.029Z,101767.94
2022-08-31T06:32:51.955Z,101764.94
2022-08-31T06:35:27.156Z,101770.03
2022-08-31T06:38:13.860Z,101770.72
2022-08-31T06:40:52.171Z,101768.66
2022-08-31T06:43:32.050Z,101774.03
2022-08-31T06:46:02.715Z,101769.34
2022-08-31T06:48:33.336Z,101777.41
2022-08-31T06:51:02.070Z,101774.25
2022-08-31T06:53:30.031Z,101773.28
2022-08-31T06:56:21.048Z,101769.63
2022-08-31T06:59:22.560Z,101770.31
2022-08-31T07:02:10.366Z,101769.16
2022-08-31T07:04:39.074Z,101777.94
2022-08-31T07:07:08.811Z,101778.63
2022-08-31T07:09:36.297Z,101784.53
2022-08-31T07:12:04.836Z,101780.84
2022-08-31T07:14:32.351Z,101783.41
2022-08-31T07:16:59.924Z,101783.41
2022-08-31T07:19:27.753Z,101779.88
2022-08-31T07:21:57.323Z,101787.63
2022-08-31T07:24:28.496Z,101778.28
2022-08-31T07:26:58.076Z,101783.66
2022-08-31T07:29:32.973Z,101781.66
2022-08-31T07:32:00.765Z,101787.75
2022-08-31T07:34:28.931Z,101793.13
2022-08-31T07:37:52.717Z,101798.31
2022-08-31T07:40:43.978Z,101797.50
2022-08-31T07:43:13.729Z,101810.06
2022-08-31T07:45:41.760Z,101812.75
2022-08-31T07:48:09.606Z,101812.63
2022-08-31T07:50:53.128Z,101811.59
2022-08-31T07:53:47.521Z,101817.84
2022-08-31T07:56:42.003Z,101823.34
2022-08-31T07:59:14.934Z,101823.22
2022-08-31T08:01:45.024Z,101819.81
2022-08-31T08:04:21.743Z,101811.19
2022-08-31T08:07:21.500Z,101809.66
2022-08-31T08:10:09.499Z,101824.94
2022-08-31T08:12:48.790Z,101825.91
2022-08-31T08:15:26.133Z,101819.84
2022-08-31T08:18:17.028Z,101820.84
2022-08-31T08:20:49.513Z,101817.03
2022-08-31T08:23:25.928Z,101817.59
2022-08-31T08:26:21.106Z,101809.13
2022-08-31T08:29:11.032Z,101811.81
2022-08-31T08:31:42.713Z,101820.69
2022-08-31T08:34:10.292Z,101818.00
2022-08-31T08:36:40.297Z,101820.69
2022-08-31T08:39:09.579Z,101806.28
2022-08-31T08:41:42.160Z,101809.97
2022-08-31T08:44:14.704Z,101808.84
2022-08-31T08:46:48.726Z,101810.78
2022-08-31T08:49:20.949Z,101815.88
2022-08-31T08:51:52.922Z,101810.50
2022-08-31T08:54:30.812Z,101811.19
2022-08-31T08:56:59.597Z,101815.03
2022-08-31T08:59:30.324Z,101810.50
2022-08-31T09:02:01.871Z,101807.81
2022-08-31T09:04:48.467Z,101810.50
2022-08-31T09:07:33.612Z,101810.38
2022-08-31T09:10:03.935Z,101815.88
2022-08-31T09:12:36.056Z,101813.03
2022-08-31T09:15:16.094Z,101811.91
2022-08-31T09:17:49.356Z,101809.38
2022-08-31T09:20:17.677Z,101813.19
2022-08-31T09:22:48.524Z,101815.72
2022-08-31T09:25:18.977Z,101808.50
2022-08-31T09:28:02.626Z,101813.59
2022-08-31T09:30:38.668Z,101802.03
2022-08-31T09:33:06.286Z,101810.91
2022-08-31T09:35:40.248Z,101810.06
2022-08-31T09:38:10.019Z,101810.06
2022-08-31T09:40:39.898Z,101811.59
2022-08-31T09:43:09.966Z,101814.16
2022-08-31T09:45:42.358Z,101799.31
2022-08-31T09:48:10.553Z,101818.50
2022-08-31T09:50:44.782Z,101806.22
2022-08-31T09:53:35.757Z,101810.75
2022-08-31T09:56:13.965Z,101808.19
2022-08-31T09:58:43.264Z,101800.00
2022-08-31T10:01:15.776Z,101791.78
2022-08-31T10:03:47.651Z,101803.38
2022-08-31T10:06:45.353Z,101800.84
2022-08-31T10:09:20.484Z,101799.31
2022-08-31T10:11:48.400Z,101802.13
2022-08-31T10:14:24.053Z,101801.13
2022-08-31T10:16:54.758Z,101805.50
2022-08-31T10:19:30.266Z,101796.44
2022-08-31T10:22:00.004Z,101794.47
2022-08-31T10:24:33.349Z,101795.16
2022-08-31T10:27:08.129Z,101795.31
2022-08-31T10:29:39.920Z,101797.16
2022-08-31T10:32:15.482Z,101791.78
2022-08-31T10:35:02.856Z,101795.47
2022-08-31T10:37:41.709Z,101792.34
2022-08-31T10:40:11.289Z,101787.50
2022-08-31T10:42:39.992Z,101781.84
2022-08-31T10:45:15.190Z,101779.84
2022-08-31T10:47:49.119Z,101791.16
2022-08-31T10:50:20.150Z,101782.06
2022-08-31T10:52:52.017Z,101771.50
2022-08-31T10:55:25.601Z,101771.94
2022-08-31T10:57:56.285Z,101771.75
2022-08-31T11:00:41.815Z,101773.47
2022-08-31T11:03:13.213Z,101761.72
2022-08-31T11:05:42.253Z,101774.84
2022-08-31T11:08:24.598Z,101775.56
2022-08-31T11:10:52.783Z,101774.69
2022-08-31T11:13:29.099Z,101773.56
2022-08-31T11:16:02.839Z,101769.03
2022-08-31T11:18:50.657Z,101767.16
2022-08-31T11:21:36.196Z,101763.34
2022-08-31T11:24:16.364Z,101760.66
2022-08-31T11:26:51.251Z,101755.97
2022-08-31T11:29:32.699Z,101769.25
2022-08-31T11:32:06.782Z,101756.53
2022-08-31T11:34:46.907Z,101759.19
2022-08-31T11:37:14.895Z,101754.50
2022-08-31T11:39:45.457Z,101753.53
2022-08-31T11:42:41.908Z,101754.22
2022-08-31T11:45:17.996Z,101754.22
2022-08-31T11:47:54.852Z,101758.63
2022-08-31T11:51:05.052Z,101756.75
2022-08-31T11:53:35.217Z,101748.53
2022-08-31T11:56:03.893Z,101748.41
2022-08-31T11:58:33.688Z,101750.09
2022-08-31T12:01:18.952Z,101739.16
2022-08-31T12:03:51.349Z,101747.41
2022-08-31T12:07:07.388Z,101735.09
2022-08-31T12:10:18.969Z,101736.28
2022-08-31T12:13:18.409Z,101727.50
2022-08-31T12:16:08.513Z,101727.66
2022-08-31T12:19:08.600Z,101732.03
2022-08-31T12:22:00.779Z,101727.03
2022-08-31T12:24:32.759Z,101723.03
2022-08-31T12:27:10.899Z,101719.22
2022-08-31T12:29:40.451Z,101718.38
2022-08-31T12:32:29.795Z,101711.44
2022-08-31T12:35:01.745Z,101720.84
2022-08-31T12:37:30.692Z,101717.47
2022-08-31T12:40:13.074Z,101718.69
2022-08-31T12:42:42.381Z,101717.50
2022-08-31T12:45:12.517Z,101715.69
2022-08-31T12:47:46.333Z,101717.50
2022-08-31T12:50:18.095Z,101707.47
2022-08-31T12:53:01.648Z,101711.53
2022-08-31T12:55:34.255Z,101719.06
2022-08-31T12:58:18.737Z,101707.47
2022-08-31T13:00:46.174Z,101709.97
2022-08-31T13:03:21.108Z,101703.91
2022-08-31T13:06:06.434Z,101705.47
2022-08-31T13:08:36.478Z,101701.63
2022-08-31T13:11:14.780Z,101703.31
2022-08-31T13:13:42.355Z,101695.09
2022-08-31T13:16:10.027Z,101697.63
2022-08-31T13:18:38.793Z,101695.94
2022-08-31T13:21:06.657Z,101689.72
2022-08-31T13:23:36.741Z,101686.88
2022-08-31T13:26:14.986Z,101684.00
2022-08-31T13:28:42.399Z,101682.34
2022-08-31T13:31:10.391Z,101689.56
2022-08-31T13:33:40.403Z,101687.41
2022-08-31T13:36:10.707Z,101692.78
2022-08-31T13:38:44.932Z,101685.56
2022-08-31T13:41:18.197Z,101682.03
2022-08-31T13:43:58.681Z,101677.34
2022-08-31T13:46:41.914Z,101679.56
2022-08-31T13:49:30.846Z,101688.16
2022-08-31T13:51:58.295Z,101681.94
2022-08-31T13:54:26.907Z,101682.06
2022-08-31T13:56:58.761Z,101680.25
2022-08-31T13:59:34.659Z,101681.94
2022-08-31T14:02:04.527Z,101685.47
2022-08-31T14:05:00.390Z,101678.72
2022-08-31T14:07:29.695Z,101680.56
2022-08-31T14:09:58.044Z,101682.56
2022-08-31T14:12:35.515Z,101674.50
2022-08-31T14:15:18.808Z,101677.19
2022-08-31T14:18:23.953Z,101684.38
2022-08-31T14:20:37.525Z,101674.50
2022-08-31T14:23:28.121Z,101681.53
2022-08-31T14:25:56.515Z,101671.81
2022-08-31T14:28:38.623Z,101672.81
2022-08-31T14:31:12.455Z,101666.28
2022-08-31T14:33:40.624Z,101675.88
2022-08-31T14:36:14.508Z,101674.00
2022-08-31T14:38:43.186Z,101667.81
2022-08-31T14:41:11.759Z,101666.81
2022-08-31T14:43:39.966Z,101665.94
2022-08-31T14:46:07.663Z,101672.03
2022-08-31T14:48:35.947Z,101663.09
2022-08-31T14:51:06.476Z,101668.47
2022-08-31T14:53:37.988Z,101665.94
2022-08-31T14:56:06.620Z,101664.28
2022-08-31T14:58:38.011Z,101660.56
2022-08-31T15:01:06.151Z,101664.13
2022-08-31T15:03:34.960Z,101671.16
2022-08-31T15:06:05.111Z,101661.44
2022-08-31T15:08:38.629Z,101669.34
2022-08-31T15:11:07.780Z,101658.75
2022-08-31T15:13:39.790Z,101660.25
2022-08-31T15:16:08.112Z,101655.03
2022-08-31T15:18:36.145Z,101660.41
2022-08-31T15:21:05.017Z,101659.56
2022-08-31T15:23:33.344Z,101662.41
2022-08-31T15:26:06.317Z,101659.72
2022-08-31T15:28:37.358Z,101653.66
2022-08-31T15:31:08.959Z,101657.19
2022-08-31T15:33:39.875Z,101645.59
2022-08-31T15:36:09.070Z,101655.53
2022-08-31T15:38:36.846Z,101654.66
2022-08-31T15:41:04.790Z,101655.69
2022-08-31T15:43:32.276Z,101648.44
2022-08-31T15:46:01.954Z,101650.31
2022-08-31T15:48:45.148Z,101641.06
2022-08-31T15:51:20.579Z,101635.91
2022-08-31T15:54:06.142Z,101637.97
2022-08-31T15:56:40.961Z,101631.06
2022-08-31T15:59:10.081Z,101632.22
2022-08-31T16:01:38.899Z,101636.06
2022-08-31T16:04:06.442Z,101622.75
2022-08-31T16:06:34.817Z,101626.47
2022-08-31T16:09:02.621Z,101621.41
2022-08-31T16:11:31.117Z,101624.41
2022-08-31T16:14:00.003Z,101622.72
2022-08-31T16:16:31.077Z,101627.09
2022-08-31T16:19:04.419Z,101620.88
2022-08-31T16:21:34.384Z,101622.72
2022-08-31T16:24:02.765Z,101619.34
2022-08-31T16:26:30.812Z,101619.47
2022-08-31T16:28:58.420Z,101621.34
2022-08-31T16:31:26.305Z,101616.13
2022-08-31T16:33:55.299Z,101617.97
2022-08-31T16:36:24.913Z,101616.97
2022-08-31T16:38:54.389Z,101611.59
2022-08-31T16:41:23.815Z,101617.97
2022-08-31T16:44:09.445Z,101614.59
2022-08-31T16:46:41.002Z,101623.66
2022-08-31T16:49:26.577Z,101617.44
2022-08-31T16:51:55.813Z,101623.66
2022-08-31T16:54:24.087Z,101626.50
2022-08-31T16:56:52.077Z,101626.66
2022-08-31T16:59:19.965Z,101628.50
2022-08-31T17:01:47.615Z,101624.97
2022-08-31T17:04:34.750Z,101625.13
2022-08-31T17:07:06.356Z,101619.75
2022-08-31T17:09:33.854Z,101625.28
2022-08-31T17:12:02.170Z,101624.28
2022-08-31T17:14:35.567Z,101627.97
2022-08-31T17:17:03.451Z,101627.97
2022-08-31T17:19:31.320Z,101626.28
2022-08-31T17:22:00.923Z,101631.03
2022-08-31T17:24:31.159Z,101633.25
2022-08-31T17:27:01.209Z,101621.34
2022-08-31T17:29:32.093Z,101624.72
2022-08-31T17:32:00.333Z,101627.41
2022-08-31T17:34:28.723Z,101620.50
2022-08-31T17:36:56.999Z,101631.41
2022-08-31T17:39:24.576Z,101633.78
2022-08-31T17:41:54.598Z,101628.41
2022-08-31T17:44:26.353Z,101625.03
2022-08-31T17:46:53.973Z,101639.63
2022-08-31T17:49:22.740Z,101639.78
2022-08-31T17:51:51.094Z,101637.09
2022-08-31T17:54:19.545Z,101646.72
2022-08-31T17:56:48.118Z,101644.41
2022-08-31T17:59:17.953Z,101643.38
2022-08-31T18:01:45.917Z,101654.81
2022-08-31T18:04:13.745Z,101653.00
2022-08-31T18:06:42.655Z,101658.66
2022-08-31T18:09:10.135Z,101658.28
2022-08-31T18:11:45.860Z,101655.59
2022-08-31T18:14:13.512Z,101664.81
2022-08-31T18:16:42.747Z,101665.97
2022-08-31T18:19:10.251Z,101672.34
2022-08-31T18:21:37.760Z,101672.34
2022-08-31T18:24:06.026Z,101677.72
2022-08-31T18:26:35.358Z,101685.97
2022-08-31T18:29:04.027Z,101687.94
2022-08-31T18:31:31.585Z,101685.41
2022-08-31T18:34:00.659Z,101690.09
2022-08-31T18:36:28.646Z,101690.25
2022-08-31T18:38:56.853Z,101683.34
2022-08-31T18:41:43.364Z,101691.72
2022-08-31T18:44:28.291Z,101693.72
2022-08-31T18:46:58.239Z,101693.03
2022-08-31T18:49:29.131Z,101697.69
2022-08-31T18:51:57.352Z,101695.00
2022-08-31T18:54:24.947Z,101702.22
2022-08-31T18:56:52.445Z,101699.41
2022-08-31T18:59:21.861Z,101701.09
2022-08-31T19:01:50.514Z,101699.41
2022-08-31T19:04:22.298Z,101705.75
2022-08-31T19:06:53.630Z,101707.47
2022-08-31T19:09:24.079Z,101697.69
2022-08-31T19:11:51.888Z,101702.22
2022-08-31T19:14:19.669Z,101702.38
2022-08-31T19:16:51.488Z,101703.41
2022-08-31T19:19:28.908Z,101706.22
2022-08-31T19:21:58.112Z,101705.69
2022-08-31T19:24:25.726Z,101707.38
2022-08-31T19:26:56.707Z,101707.66
2022-08-31T19:29:26.617Z,101708.53
2022-08-31T19:31:54.955Z,101711.38
2022-08-31T19:34:25.729Z,101706.13
2022-08-31T19:36:55.411Z,101718.75
2022-08-31T19:39:26.024Z,101716.06
2022-08-31T19:41:54.499Z,101715.34
2022-08-31T19:44:22.198Z,101719.88
2022-08-31T19:46:53.815Z,101719.03
2022-08-31T19:49:21.333Z,101722.66
2022-08-31T19:51:51.884Z,101719.16
2022-08-31T19:54:20.325Z,101710.41
2022-08-31T19:56:49.124Z,101720.28
2022-08-31T19:59:20.013Z,101716.75
2022-08-31T20:01:48.438Z,101714.22
2022-08-31T20:04:19.032Z,101715.09
2022-08-31T20:06:46.777Z,101708.00
2022-08-31T20:09:14.279Z,101706.31
2022-08-31T20:11:41.892Z,101714.53
2022-08-31T20:14:10.729Z,101710.31
2022-08-31T20:16:41.603Z,101710.31
2022-08-31T20:19:09.991Z,101711.47
2022-08-31T20:21:40.445Z,101717.69
2022-08-31T20:24:09.895Z,101712.31
2022-08-31T20:26:47.458Z,101718.66
2022-08-31T20:29:20.936Z,101719.66
2022-08-31T20:31:49.473Z,101720.50
2022-08-31T20:34:19.034Z,101724.19
2022-08-31T20:36:48.210Z,101721.50
2022-08-31T20:39:16.751Z,101718.81
2022-08-31T20:41:46.726Z,101717.97
2022-08-31T20:44:16.228Z,101721.50
2022-08-31T20:47:04.562Z,101719.81
2022-08-31T20:49:33.506Z,101725.19
2022-08-31T20:52:01.850Z,101720.13
2022-08-31T20:54:31.634Z,101725.19
2022-08-31T20:56:59.654Z,101731.25
2022-08-31T20:59:27.343Z,101732.78
2022-08-31T21:01:59.204Z,101732.97
2022-08-31T21:04:28.911Z,101730.28
2022-08-31T21:06:57.009Z,101724.72
2022-08-31T21:09:24.492Z,101735.47
2022-08-31T21:11:51.945Z,101736.63
2022-08-31T21:14:20.541Z,101742.28
2022-08-31T21:16:48.153Z,101738.91
2022-08-31T21:19:17.906Z,101741.75
2022-08-31T21:21:46.268Z,101739.22
2022-08-31T21:24:15.075Z,101742.03
2022-08-31T21:26:42.536Z,101744.88
2022-08-31T21:29:10.720Z,101742.31
2022-08-31T21:31:46.361Z,101743.19
2022-08-31T21:34:18.649Z,101746.88
2022-08-31T21:36:46.305Z,101746.03
2022-08-31T21:39:14.741Z,101752.22
2022-08-31T21:41:43.009Z,101746.88
2022-08-31T21:44:11.742Z,101746.19
2022-08-31T21:46:39.262Z,101741.78
2022-08-31T21:49:07.009Z,101750.56
2022-08-31T21:51:36.685Z,101752.53
2022-08-31T21:54:05.449Z,101754.22
2022-08-31T21:56:34.643Z,101749.97
2022-08-31T21:59:03.649Z,101757.19
2022-08-31T22:01:32.906Z,101751.97
2022-08-31T22:04:00.583Z,101761.88
2022-08-31T22:06:29.037Z,101754.97
2022-08-31T22:09:00.139Z,101760.50
2022-08-31T22:11:29.938Z,101759.63
2022-08-31T22:13:58.542Z,101762.31
2022-08-31T22:16:26.255Z,101756.13
2022-08-31T22:19:02.708Z,101752.72
2022-08-31T22:21:31.400Z,101757.09
2022-08-31T22:24:01.981Z,101765.16
2022-08-31T22:26:30.288Z,101763.31
2022-08-31T22:28:59.189Z,101763.31
2022-08-31T22:31:27.305Z,101766.84
2022-08-31T22:33:54.905Z,101766.16
2022-08-31T22:36:31.257Z,101765.47
2022-08-31T22:39:03.067Z,101772.66
2022-08-31T22:41:30.658Z,101765.59
2022-08-31T22:43:58.121Z,101763.06
2022-08-31T22:46:25.670Z,101765.75
2022-08-31T22:48:53.168Z,101768.72
2022-08-31T22:51:22.315Z,101771.41
2022-08-31T22:53:51.479Z,101761.66
2022-08-31T22:56:21.745Z,101773.13
2022-08-31T22:58:49.570Z,101767.88
2022-08-31T23:01:18.754Z,101762.66
2022-08-31T23:03:48.364Z,101766.19
2022-08-31T23:06:16.200Z,101769.88
2022-08-31T23:08:43.998Z,101769.88
2022-08-31T23:11:11.489Z,101769.88
2022-08-31T23:13:56.479Z,101762.66
2022-08-31T23:16:26.574Z,101769.00
2022-08-31T23:18:55.388Z,101765.50
2022-08-31T23:21:22.816Z,101767.34
2022-08-31T23:23:50.245Z,101759.28
2022-08-31T23:26:19.223Z,101755.72
2022-08-31T23:28:47.980Z,101753.19
2022-08-31T23:31:15.485Z,101757.56
2022-08-31T23:33:46.980Z,101755.88
2022-08-31T23:36:14.399Z,101754.91
2022-08-31T23:38:49.845Z,101751.50
2022-08-31T23:41:18.979Z,101755.88
2022-08-31T23:43:54.576Z,101759.28
2022-08-31T23:46:23.682Z,101752.06
2022-08-31T23:48:51.228Z,101745.88
2022-08-31T23:51:19.934Z,101747.53
2022-08-31T23:53:48.434Z,101754.06
2022-08-31T23:56:15.852Z,101757.72
2022-08-31T23:58:44.500Z,101748.97
